sensor_id;sensor_type;location;lat;lon;timestamp;P1;durP1;ratioP1;P2;durP2;ratioP2
3791;SDS011;1911;53.768;11.474;2023-02-24T00:01:37;12.25;;;2.42;;
3791;SDS011;1911;53.768;11.474;2023-02-24T00:04:11;13.77;;;2.20;;
3791;SDS011;1911;53.768;11.474;2023-02-24T00:06:39;3.13;;;1.10;;
3791;SDS011;1911;53.768;11.474;2023-02-24T00:11:43;10.60;;;1.77;;
3791;SDS011;1911;53.768;11.474;2023-02-24T00:14:12;6.27;;;2.13;;
3791;SDS011;1911;53.768;11.474;2023-02-24T00:16:43;13.40;;;1.97;;
3791;SDS011;1911;53.768;11.474;2023-02-24T00:19:14;15.67;;;1.77;;
3791;SDS011;1911;53.768;11.474;2023-02-24T00:21:42;6.75;;;1.50;;
3791;SDS011;1911;53.768;11.474;2023-02-24T00:24:09;5.00;;;1.38;;
3791;SDS011;1911;53.768;11.474;2023-02-24T00:26:35;8.52;;;1.60;;
3791;SDS011;1911;53.768;11.474;2023-02-24T00:29:05;8.40;;;1.65;;
3791;SDS011;1911;53.768;11.474;2023-02-24T00:31:32;5.80;;;2.35;;
3791;SDS011;1911;53.768;11.474;2023-02-24T00:33:58;5.83;;;1.60;;
3791;SDS011;1911;53.768;11.474;2023-02-24T00:36:26;5.10;;;1.57;;
3791;SDS011;1911;53.768;11.474;2023-02-24T00:38:54;3.80;;;1.40;;
3791;SDS011;1911;53.768;11.474;2023-02-24T00:41:24;6.90;;;1.40;;
3791;SDS011;1911;53.768;11.474;2023-02-24T00:43:53;4.32;;;1.42;;
3791;SDS011;1911;53.768;11.474;2023-02-24T00:46:30;4.60;;;1.70;;
3791;SDS011;1911;53.768;11.474;2023-02-24T00:49:17;3.55;;;1.50;;
3791;SDS011;1911;53.768;11.474;2023-02-24T00:51:44;8.53;;;1.40;;
3791;SDS011;1911;53.768;11.474;2023-02-24T00:54:12;5.28;;;1.45;;
3791;SDS011;1911;53.768;11.474;2023-02-24T00:56:39;4.72;;;1.40;;
3791;SDS011;1911;53.768;11.474;2023-02-24T00:59:06;3.83;;;1.87;;
3791;SDS011;1911;53.768;11.474;2023-02-24T01:01:34;2.53;;;1.40;;
3791;SDS011;1911;53.768;11.474;2023-02-24T01:04:00;6.33;;;1.43;;
3791;SDS011;1911;53.768;11.474;2023-02-24T01:06:30;7.80;;;1.77;;
3791;SDS011;1911;53.768;11.474;2023-02-24T01:08:58;6.70;;;1.27;;
3791;SDS011;1911;53.768;11.474;2023-02-24T01:11:28;3.63;;;1.50;;
3791;SDS011;1911;53.768;11.474;2023-02-24T01:14:17;3.00;;;1.50;;
3791;SDS011;1911;53.768;11.474;2023-02-24T01:16:45;6.77;;;2.13;;
3791;SDS011;1911;53.768;11.474;2023-02-24T01:19:14;7.30;;;4.03;;
3791;SDS011;1911;53.768;11.474;2023-02-24T01:21:41;6.73;;;1.37;;
3791;SDS011;1911;53.768;11.474;2023-02-24T01:24:10;9.93;;;1.10;;
3791;SDS011;1911;53.768;11.474;2023-02-24T01:26:39;8.50;;;1.97;;
3791;SDS011;1911;53.768;11.474;2023-02-24T01:29:05;11.03;;;2.67;;
3791;SDS011;1911;53.768;11.474;2023-02-24T01:31:33;6.03;;;2.20;;
3791;SDS011;1911;53.768;11.474;2023-02-24T01:34:03;11.93;;;2.77;;
3791;SDS011;1911;53.768;11.474;2023-02-24T01:36:30;3.70;;;1.23;;
3791;SDS011;1911;53.768;11.474;2023-02-24T01:38:58;3.80;;;1.23;;
3791;SDS011;1911;53.768;11.474;2023-02-24T01:41:25;9.60;;;1.38;;
3791;SDS011;1911;53.768;11.474;2023-02-24T01:46:52;7.60;;;1.80;;
3791;SDS011;1911;53.768;11.474;2023-02-24T01:49:18;4.33;;;1.63;;
3791;SDS011;1911;53.768;11.474;2023-02-24T01:52:02;4.67;;;1.30;;
3791;SDS011;1911;53.768;11.474;2023-02-24T01:54:29;7.53;;;1.10;;
3791;SDS011;1911;53.768;11.474;2023-02-24T01:56:59;3.33;;;1.10;;
3791;SDS011;1911;53.768;11.474;2023-02-24T01:59:27;8.13;;;1.83;;
3791;SDS011;1911;53.768;11.474;2023-02-24T02:01:55;7.70;;;1.87;;
3791;SDS011;1911;53.768;11.474;2023-02-24T02:04:45;2.67;;;1.10;;
3791;SDS011;1911;53.768;11.474;2023-02-24T02:07:13;4.50;;;1.27;;
3791;SDS011;1911;53.768;11.474;2023-02-24T02:09:58;10.10;;;1.40;;
3791;SDS011;1911;53.768;11.474;2023-02-24T02:12:27;4.63;;;1.13;;
3791;SDS011;1911;53.768;11.474;2023-02-24T02:14:55;2.50;;;0.97;;
3791;SDS011;1911;53.768;11.474;2023-02-24T02:17:30;4.80;;;1.50;;
3791;SDS011;1911;53.768;11.474;2023-02-24T02:20:39;9.57;;;1.80;;
3791;SDS011;1911;53.768;11.474;2023-02-24T02:25:54;8.53;;;1.20;;
3791;SDS011;1911;53.768;11.474;2023-02-24T02:33:45;6.73;;;1.00;;
3791;SDS011;1911;53.768;11.474;2023-02-24T02:42:09;5.83;;;0.97;;
3791;SDS011;1911;53.768;11.474;2023-02-24T02:44:41;5.73;;;1.23;;
3791;SDS011;1911;53.768;11.474;2023-02-24T02:47:34;3.67;;;1.00;;
3791;SDS011;1911;53.768;11.474;2023-02-24T02:52:41;3.10;;;0.93;;
3791;SDS011;1911;53.768;11.474;2023-02-24T02:55:13;5.10;;;1.10;;
3791;SDS011;1911;53.768;11.474;2023-02-24T02:57:45;4.30;;;1.10;;
3791;SDS011;1911;53.768;11.474;2023-02-24T03:00:15;1.43;;;0.80;;
3791;SDS011;1911;53.768;11.474;2023-02-24T03:02:48;4.70;;;0.90;;
3791;SDS011;1911;53.768;11.474;2023-02-24T03:05:17;3.80;;;0.77;;
3791;SDS011;1911;53.768;11.474;2023-02-24T03:07:48;4.33;;;1.00;;
3791;SDS011;1911;53.768;11.474;2023-02-24T03:10:19;5.50;;;0.80;;
3791;SDS011;1911;53.768;11.474;2023-02-24T03:12:52;6.93;;;1.80;;
3791;SDS011;1911;53.768;11.474;2023-02-24T03:15:20;3.23;;;0.87;;
3791;SDS011;1911;53.768;11.474;2023-02-24T03:17:50;3.17;;;1.73;;
3791;SDS011;1911;53.768;11.474;2023-02-24T03:20:28;9.10;;;1.43;;
3791;SDS011;1911;53.768;11.474;2023-02-24T03:23:08;6.60;;;1.00;;
3791;SDS011;1911;53.768;11.474;2023-02-24T03:25:47;4.17;;;0.90;;
3791;SDS011;1911;53.768;11.474;2023-02-24T03:28:21;4.50;;;1.30;;
3791;SDS011;1911;53.768;11.474;2023-02-24T03:31:01;1.33;;;0.80;;
3791;SDS011;1911;53.768;11.474;2023-02-24T03:33:50;2.20;;;1.07;;
3791;SDS011;1911;53.768;11.474;2023-02-24T03:36:29;4.03;;;0.80;;
3791;SDS011;1911;53.768;11.474;2023-02-24T03:38:55;4.47;;;1.10;;
3791;SDS011;1911;53.768;11.474;2023-02-24T03:41:25;8.33;;;1.23;;
3791;SDS011;1911;53.768;11.474;2023-02-24T03:43:54;3.23;;;0.80;;
3791;SDS011;1911;53.768;11.474;2023-02-24T03:46:22;4.30;;;1.40;;
3791;SDS011;1911;53.768;11.474;2023-02-24T03:48:50;2.00;;;0.67;;
3791;SDS011;1911;53.768;11.474;2023-02-24T03:51:23;4.10;;;1.07;;
3791;SDS011;1911;53.768;11.474;2023-02-24T04:06:55;6.90;;;2.23;;
3791;SDS011;1911;53.768;11.474;2023-02-24T04:12:05;2.63;;;1.00;;
3791;SDS011;1911;53.768;11.474;2023-02-24T04:14:49;2.83;;;1.00;;
3791;SDS011;1911;53.768;11.474;2023-02-24T04:17:26;3.70;;;1.40;;
3791;SDS011;1911;53.768;11.474;2023-02-24T04:19:55;9.10;;;1.23;;
3791;SDS011;1911;53.768;11.474;2023-02-24T04:22:25;4.17;;;1.40;;
3791;SDS011;1911;53.768;11.474;2023-02-24T04:24:55;3.10;;;0.90;;
3791;SDS011;1911;53.768;11.474;2023-02-24T04:27:23;9.80;;;1.17;;
3791;SDS011;1911;53.768;11.474;2023-02-24T04:29:53;3.70;;;1.10;;
3791;SDS011;1911;53.768;11.474;2023-02-24T04:32:25;6.73;;;0.93;;
3791;SDS011;1911;53.768;11.474;2023-02-24T04:34:59;6.43;;;0.90;;
3791;SDS011;1911;53.768;11.474;2023-02-24T04:37:30;2.93;;;1.20;;
3791;SDS011;1911;53.768;11.474;2023-02-24T04:39:59;3.67;;;0.90;;
3791;SDS011;1911;53.768;11.474;2023-02-24T04:42:25;6.13;;;1.27;;
3791;SDS011;1911;53.768;11.474;2023-02-24T04:44:51;4.23;;;1.07;;
3791;SDS011;1911;53.768;11.474;2023-02-24T04:47:22;3.50;;;0.90;;
3791;SDS011;1911;53.768;11.474;2023-02-24T04:49:48;5.40;;;1.60;;
3791;SDS011;1911;53.768;11.474;2023-02-24T04:52:13;3.47;;;1.37;;
3791;SDS011;1911;53.768;11.474;2023-02-24T04:54:39;4.03;;;1.43;;
3791;SDS011;1911;53.768;11.474;2023-02-24T04:57:05;7.20;;;1.30;;
3791;SDS011;1911;53.768;11.474;2023-02-24T04:59:31;2.80;;;1.10;;
3791;SDS011;1911;53.768;11.474;2023-02-24T05:01:57;3.30;;;1.20;;
3791;SDS011;1911;53.768;11.474;2023-02-24T05:04:25;2.80;;;0.80;;
3791;SDS011;1911;53.768;11.474;2023-02-24T05:06:54;10.07;;;1.80;;
3791;SDS011;1911;53.768;11.474;2023-02-24T05:09:21;5.20;;;1.33;;
3791;SDS011;1911;53.768;11.474;2023-02-24T05:11:48;3.57;;;1.63;;
3791;SDS011;1911;53.768;11.474;2023-02-24T05:14:15;6.80;;;1.23;;
3791;SDS011;1911;53.768;11.474;2023-02-24T05:16:45;12.03;;;3.60;;
3791;SDS011;1911;53.768;11.474;2023-02-24T05:19:13;6.80;;;1.30;;
3791;SDS011;1911;53.768;11.474;2023-02-24T05:21:59;5.10;;;1.30;;
3791;SDS011;1911;53.768;11.474;2023-02-24T05:24:27;4.95;;;1.27;;
3791;SDS011;1911;53.768;11.474;2023-02-24T05:26:55;3.50;;;1.13;;
3791;SDS011;1911;53.768;11.474;2023-02-24T05:29:25;3.38;;;1.08;;
3791;SDS011;1911;53.768;11.474;2023-02-24T05:31:52;7.17;;;1.37;;
3791;SDS011;1911;53.768;11.474;2023-02-24T05:34:19;5.73;;;1.77;;
3791;SDS011;1911;53.768;11.474;2023-02-24T05:36:45;4.33;;;1.40;;
3791;SDS011;1911;53.768;11.474;2023-02-24T05:39:13;7.67;;;1.53;;
3791;SDS011;1911;53.768;11.474;2023-02-24T05:41:44;6.43;;;1.10;;
3791;SDS011;1911;53.768;11.474;2023-02-24T05:44:13;6.93;;;1.00;;
3791;SDS011;1911;53.768;11.474;2023-02-24T05:46:42;6.50;;;1.13;;
3791;SDS011;1911;53.768;11.474;2023-02-24T05:49:19;4.13;;;1.20;;
3791;SDS011;1911;53.768;11.474;2023-02-24T05:51:52;8.40;;;1.60;;
3791;SDS011;1911;53.768;11.474;2023-02-24T05:54:20;4.93;;;1.27;;
3791;SDS011;1911;53.768;11.474;2023-02-24T05:56:46;6.40;;;1.50;;
3791;SDS011;1911;53.768;11.474;2023-02-24T05:59:13;3.27;;;1.23;;
3791;SDS011;1911;53.768;11.474;2023-02-24T06:01:45;6.50;;;1.77;;
3791;SDS011;1911;53.768;11.474;2023-02-24T06:04:12;7.30;;;1.37;;
3791;SDS011;1911;53.768;11.474;2023-02-24T06:07:00;5.63;;;0.80;;
3791;SDS011;1911;53.768;11.474;2023-02-24T06:09:27;4.57;;;1.45;;
3791;SDS011;1911;53.768;11.474;2023-02-24T06:11:53;3.30;;;1.10;;
3791;SDS011;1911;53.768;11.474;2023-02-24T06:14:18;10.87;;;1.53;;
3791;SDS011;1911;53.768;11.474;2023-02-24T06:16:46;11.20;;;1.43;;
3791;SDS011;1911;53.768;11.474;2023-02-24T06:19:12;9.47;;;1.30;;
3791;SDS011;1911;53.768;11.474;2023-02-24T06:21:39;4.40;;;1.27;;
3791;SDS011;1911;53.768;11.474;2023-02-24T06:24:06;8.00;;;1.83;;
3791;SDS011;1911;53.768;11.474;2023-02-24T06:26:38;5.83;;;0.90;;
3791;SDS011;1911;53.768;11.474;2023-02-24T06:29:09;10.40;;;2.00;;
3791;SDS011;1911;53.768;11.474;2023-02-24T06:31:39;7.18;;;2.70;;
3791;SDS011;1911;53.768;11.474;2023-02-24T06:34:06;4.13;;;1.20;;
3791;SDS011;1911;53.768;11.474;2023-02-24T06:36:34;10.23;;;2.47;;
3791;SDS011;1911;53.768;11.474;2023-02-24T06:39:01;3.43;;;1.10;;
3791;SDS011;1911;53.768;11.474;2023-02-24T06:41:28;3.33;;;1.53;;
3791;SDS011;1911;53.768;11.474;2023-02-24T06:43:53;4.40;;;1.27;;
3791;SDS011;1911;53.768;11.474;2023-02-24T06:46:19;5.63;;;0.90;;
3791;SDS011;1911;53.768;11.474;2023-02-24T06:48:45;6.10;;;1.40;;
3791;SDS011;1911;53.768;11.474;2023-02-24T06:51:12;8.48;;;1.33;;
3791;SDS011;1911;53.768;11.474;2023-02-24T06:53:39;6.37;;;1.50;;
3791;SDS011;1911;53.768;11.474;2023-02-24T06:58:42;6.33;;;1.63;;
3791;SDS011;1911;53.768;11.474;2023-02-24T07:01:12;5.13;;;1.00;;
3791;SDS011;1911;53.768;11.474;2023-02-24T07:03:40;3.10;;;1.30;;
3791;SDS011;1911;53.768;11.474;2023-02-24T07:06:26;3.05;;;1.20;;
3791;SDS011;1911;53.768;11.474;2023-02-24T07:08:58;4.87;;;1.00;;
3791;SDS011;1911;53.768;11.474;2023-02-24T07:11:24;6.60;;;1.20;;
3791;SDS011;1911;53.768;11.474;2023-02-24T07:13:52;3.97;;;1.37;;
3791;SDS011;1911;53.768;11.474;2023-02-24T07:16:19;11.93;;;1.50;;
3791;SDS011;1911;53.768;11.474;2023-02-24T07:18:51;4.33;;;1.30;;
3791;SDS011;1911;53.768;11.474;2023-02-24T07:21:22;4.57;;;1.95;;
3791;SDS011;1911;53.768;11.474;2023-02-24T07:23:49;6.63;;;2.00;;
3791;SDS011;1911;53.768;11.474;2023-02-24T07:26:20;4.30;;;3.30;;
3791;SDS011;1911;53.768;11.474;2023-02-24T07:28:48;2.40;;;1.20;;
3791;SDS011;1911;53.768;11.474;2023-02-24T07:31:16;6.35;;;2.05;;
3791;SDS011;1911;53.768;11.474;2023-02-24T07:33:44;7.60;;;1.80;;
3791;SDS011;1911;53.768;11.474;2023-02-24T07:36:12;7.03;;;1.83;;
3791;SDS011;1911;53.768;11.474;2023-02-24T07:38:40;6.85;;;2.40;;
3791;SDS011;1911;53.768;11.474;2023-02-24T07:41:06;7.30;;;2.03;;
3791;SDS011;1911;53.768;11.474;2023-02-24T07:43:34;5.90;;;1.33;;
3791;SDS011;1911;53.768;11.474;2023-02-24T07:46:12;4.95;;;1.58;;
3791;SDS011;1911;53.768;11.474;2023-02-24T07:48:39;9.35;;;2.25;;
3791;SDS011;1911;53.768;11.474;2023-02-24T07:51:12;8.40;;;2.58;;
3791;SDS011;1911;53.768;11.474;2023-02-24T07:53:40;7.70;;;2.65;;
3791;SDS011;1911;53.768;11.474;2023-02-24T07:56:07;5.72;;;2.03;;
3791;SDS011;1911;53.768;11.474;2023-02-24T07:58:43;4.30;;;2.47;;
3791;SDS011;1911;53.768;11.474;2023-02-24T08:01:17;3.38;;;2.10;;
3791;SDS011;1911;53.768;11.474;2023-02-24T08:03:52;3.00;;;1.90;;
3791;SDS011;1911;53.768;11.474;2023-02-24T08:06:23;14.20;;;2.97;;
3791;SDS011;1911;53.768;11.474;2023-02-24T08:08:57;5.80;;;2.40;;
3791;SDS011;1911;53.768;11.474;2023-02-24T08:11:27;12.20;;;3.53;;
3791;SDS011;1911;53.768;11.474;2023-02-24T08:14:02;9.52;;;3.30;;
3791;SDS011;1911;53.768;11.474;2023-02-24T08:19:11;6.30;;;2.85;;
3791;SDS011;1911;53.768;11.474;2023-02-24T08:21:44;4.63;;;2.03;;
3791;SDS011;1911;53.768;11.474;2023-02-24T08:24:16;7.28;;;2.63;;
3791;SDS011;1911;53.768;11.474;2023-02-24T08:26:44;3.67;;;2.40;;
3791;SDS011;1911;53.768;11.474;2023-02-24T08:32:04;3.70;;;2.42;;
3791;SDS011;1911;53.768;11.474;2023-02-24T08:34:34;3.42;;;2.33;;
3791;SDS011;1911;53.768;11.474;2023-02-24T08:37:00;2.50;;;2.10;;
3791;SDS011;1911;53.768;11.474;2023-02-24T08:39:26;4.37;;;2.43;;
3791;SDS011;1911;53.768;11.474;2023-02-24T08:41:58;6.75;;;2.50;;
3791;SDS011;1911;53.768;11.474;2023-02-24T08:44:23;3.40;;;2.10;;
3791;SDS011;1911;53.768;11.474;2023-02-24T08:46:51;3.50;;;2.50;;
3791;SDS011;1911;53.768;11.474;2023-02-24T08:49:21;9.10;;;3.97;;
3791;SDS011;1911;53.768;11.474;2023-02-24T08:51:52;4.47;;;2.47;;
3791;SDS011;1911;53.768;11.474;2023-02-24T08:54:19;7.60;;;3.00;;
3791;SDS011;1911;53.768;11.474;2023-02-24T08:56:56;2.85;;;2.22;;
3791;SDS011;1911;53.768;11.474;2023-02-24T08:59:32;2.85;;;2.03;;
3791;SDS011;1911;53.768;11.474;2023-02-24T09:02:23;2.95;;;2.10;;
3791;SDS011;1911;53.768;11.474;2023-02-24T09:05:01;6.70;;;2.85;;
3791;SDS011;1911;53.768;11.474;2023-02-24T09:07:30;3.05;;;1.90;;
3791;SDS011;1911;53.768;11.474;2023-02-24T09:10:00;2.70;;;2.10;;
3791;SDS011;1911;53.768;11.474;2023-02-24T09:12:27;3.50;;;1.90;;
3791;SDS011;1911;53.768;11.474;2023-02-24T09:14:54;4.15;;;1.95;;
3791;SDS011;1911;53.768;11.474;2023-02-24T09:17:25;4.15;;;2.35;;
3791;SDS011;1911;53.768;11.474;2023-02-24T09:20:05;4.13;;;2.03;;
3791;SDS011;1911;53.768;11.474;2023-02-24T09:22:59;3.80;;;2.25;;
3791;SDS011;1911;53.768;11.474;2023-02-24T09:25:32;6.97;;;2.22;;
3791;SDS011;1911;53.768;11.474;2023-02-24T09:28:07;6.22;;;2.38;;
3791;SDS011;1911;53.768;11.474;2023-02-24T09:30:41;5.45;;;2.05;;
3791;SDS011;1911;53.768;11.474;2023-02-24T09:33:20;2.70;;;1.67;;
3791;SDS011;1911;53.768;11.474;2023-02-24T09:36:02;6.50;;;2.05;;
3791;SDS011;1911;53.768;11.474;2023-02-24T09:38:55;7.40;;;2.83;;
3791;SDS011;1911;53.768;11.474;2023-02-24T09:43:59;10.23;;;2.70;;
3791;SDS011;1911;53.768;11.474;2023-02-24T09:46:32;5.07;;;2.10;;
3791;SDS011;1911;53.768;11.474;2023-02-24T09:49:16;5.25;;;3.10;;
3791;SDS011;1911;53.768;11.474;2023-02-24T09:51:43;3.08;;;2.20;;
3791;SDS011;1911;53.768;11.474;2023-02-24T09:54:15;3.97;;;2.92;;
3791;SDS011;1911;53.768;11.474;2023-02-24T09:56:46;5.72;;;2.33;;
3791;SDS011;1911;53.768;11.474;2023-02-24T10:05:15;4.22;;;3.08;;
3791;SDS011;1911;53.768;11.474;2023-02-24T10:07:43;6.53;;;3.40;;
3791;SDS011;1911;53.768;11.474;2023-02-24T10:10:17;5.10;;;3.40;;
3791;SDS011;1911;53.768;11.474;2023-02-24T10:13:14;6.13;;;3.88;;
3791;SDS011;1911;53.768;11.474;2023-02-24T10:15:42;5.20;;;2.95;;
3791;SDS011;1911;53.768;11.474;2023-02-24T10:29:33;5.45;;;3.67;;
3791;SDS011;1911;53.768;11.474;2023-02-24T10:34:48;5.22;;;3.47;;
3791;SDS011;1911;53.768;11.474;2023-02-24T10:37:20;6.55;;;4.15;;
3791;SDS011;1911;53.768;11.474;2023-02-24T10:39:49;6.40;;;3.85;;
3791;SDS011;1911;53.768;11.474;2023-02-24T10:42:48;6.18;;;3.97;;
3791;SDS011;1911;53.768;11.474;2023-02-24T10:45:14;5.40;;;3.55;;
3791;SDS011;1911;53.768;11.474;2023-02-24T10:47:53;6.75;;;3.90;;
3791;SDS011;1911;53.768;11.474;2023-02-24T10:52:52;9.30;;;4.57;;
3791;SDS011;1911;53.768;11.474;2023-02-24T10:55:42;4.28;;;3.38;;
3791;SDS011;1911;53.768;11.474;2023-02-24T10:58:15;6.10;;;3.20;;
3791;SDS011;1911;53.768;11.474;2023-02-24T11:01:12;4.70;;;3.70;;
3791;SDS011;1911;53.768;11.474;2023-02-24T11:03:54;3.93;;;2.70;;
3791;SDS011;1911;53.768;11.474;2023-02-24T11:06:37;5.70;;;3.65;;
3791;SDS011;1911;53.768;11.474;2023-02-24T11:12:04;5.20;;;3.53;;
3791;SDS011;1911;53.768;11.474;2023-02-24T11:14:56;6.20;;;3.60;;
3791;SDS011;1911;53.768;11.474;2023-02-24T11:17:54;5.57;;;3.80;;
3791;SDS011;1911;53.768;11.474;2023-02-24T11:20:41;5.97;;;3.80;;
3791;SDS011;1911;53.768;11.474;2023-02-24T11:23:16;7.33;;;3.33;;
3791;SDS011;1911;53.768;11.474;2023-02-24T11:25:59;6.73;;;4.10;;
3791;SDS011;1911;53.768;11.474;2023-02-24T11:40:22;5.22;;;3.53;;
3791;SDS011;1911;53.768;11.474;2023-02-24T11:48:14;7.53;;;3.50;;
3791;SDS011;1911;53.768;11.474;2023-02-24T11:53:36;8.60;;;3.92;;
3791;SDS011;1911;53.768;11.474;2023-02-24T11:56:27;6.50;;;4.77;;
3791;SDS011;1911;53.768;11.474;2023-02-24T11:58:59;8.60;;;4.90;;
3791;SDS011;1911;53.768;11.474;2023-02-24T12:04:33;9.57;;;4.20;;
3791;SDS011;1911;53.768;11.474;2023-02-24T12:10:18;8.00;;;4.40;;
3791;SDS011;1911;53.768;11.474;2023-02-24T12:15:43;6.70;;;4.10;;
3791;SDS011;1911;53.768;11.474;2023-02-24T12:21:01;6.77;;;4.20;;
3791;SDS011;1911;53.768;11.474;2023-02-24T12:23:36;5.63;;;3.50;;
3791;SDS011;1911;53.768;11.474;2023-02-24T12:40:39;6.40;;;3.53;;
3791;SDS011;1911;53.768;11.474;2023-02-24T12:43:26;4.70;;;3.10;;
3791;SDS011;1911;53.768;11.474;2023-02-24T12:56:39;6.83;;;4.30;;
3791;SDS011;1911;53.768;11.474;2023-02-24T12:59:12;6.30;;;4.07;;
3791;SDS011;1911;53.768;11.474;2023-02-24T13:01:48;7.43;;;4.10;;
3791;SDS011;1911;53.768;11.474;2023-02-24T13:07:30;8.73;;;4.27;;
3791;SDS011;1911;53.768;11.474;2023-02-24T13:15:55;9.90;;;5.83;;
3791;SDS011;1911;53.768;11.474;2023-02-24T13:18:34;11.00;;;4.97;;
3791;SDS011;1911;53.768;11.474;2023-02-24T13:21:07;7.60;;;4.63;;
3791;SDS011;1911;53.768;11.474;2023-02-24T13:23:59;10.60;;;6.00;;
3791;SDS011;1911;53.768;11.474;2023-02-24T13:26:27;8.33;;;5.13;;
3791;SDS011;1911;53.768;11.474;2023-02-24T13:31:50;10.77;;;5.80;;
3791;SDS011;1911;53.768;11.474;2023-02-24T13:34:40;7.37;;;4.53;;
3791;SDS011;1911;53.768;11.474;2023-02-24T13:37:08;11.80;;;5.63;;
3791;SDS011;1911;53.768;11.474;2023-02-24T13:39:37;11.37;;;5.63;;
3791;SDS011;1911;53.768;11.474;2023-02-24T13:42:27;8.50;;;5.33;;
3791;SDS011;1911;53.768;11.474;2023-02-24T13:53:16;9.97;;;6.30;;
3791;SDS011;1911;53.768;11.474;2023-02-24T13:56:26;8.37;;;5.30;;
3791;SDS011;1911;53.768;11.474;2023-02-24T14:01:18;8.07;;;5.40;;
3791;SDS011;1911;53.768;11.474;2023-02-24T14:04:05;9.83;;;5.67;;
3791;SDS011;1911;53.768;11.474;2023-02-24T14:06:51;11.43;;;5.87;;
3791;SDS011;1911;53.768;11.474;2023-02-24T14:09:23;10.03;;;6.00;;
3791;SDS011;1911;53.768;11.474;2023-02-24T14:12:02;12.00;;;5.97;;
3791;SDS011;1911;53.768;11.474;2023-02-24T14:14:32;6.87;;;5.03;;
3791;SDS011;1911;53.768;11.474;2023-02-24T14:16:57;8.77;;;5.60;;
3791;SDS011;1911;53.768;11.474;2023-02-24T14:19:23;15.23;;;6.60;;
3791;SDS011;1911;53.768;11.474;2023-02-24T14:21:51;16.23;;;6.30;;
3791;SDS011;1911;53.768;11.474;2023-02-24T14:24:21;8.27;;;5.43;;
3791;SDS011;1911;53.768;11.474;2023-02-24T14:26:49;8.13;;;4.90;;
3791;SDS011;1911;53.768;11.474;2023-02-24T14:29:37;15.90;;;7.80;;
3791;SDS011;1911;53.768;11.474;2023-02-24T14:32:02;10.47;;;6.03;;
3791;SDS011;1911;53.768;11.474;2023-02-24T14:34:29;8.23;;;4.90;;
3791;SDS011;1911;53.768;11.474;2023-02-24T14:36:56;10.70;;;5.40;;
3791;SDS011;1911;53.768;11.474;2023-02-24T14:39:28;14.43;;;5.90;;
3791;SDS011;1911;53.768;11.474;2023-02-24T14:44:33;8.57;;;5.83;;
3791;SDS011;1911;53.768;11.474;2023-02-24T14:47:15;10.80;;;5.43;;
3791;SDS011;1911;53.768;11.474;2023-02-24T14:49:50;12.93;;;5.57;;
3791;SDS011;1911;53.768;11.474;2023-02-24T14:54:57;9.50;;;5.90;;
3791;SDS011;1911;53.768;11.474;2023-02-24T14:57:54;11.00;;;6.40;;
3791;SDS011;1911;53.768;11.474;2023-02-24T15:00:28;21.07;;;6.53;;
3791;SDS011;1911;53.768;11.474;2023-02-24T15:05:26;11.47;;;6.10;;
3791;SDS011;1911;53.768;11.474;2023-02-24T15:07:52;9.90;;;6.00;;
3791;SDS011;1911;53.768;11.474;2023-02-24T15:10:22;14.97;;;7.37;;
3791;SDS011;1911;53.768;11.474;2023-02-24T15:12:52;12.83;;;6.23;;
3791;SDS011;1911;53.768;11.474;2023-02-24T15:15:22;17.17;;;6.90;;
3791;SDS011;1911;53.768;11.474;2023-02-24T15:17:59;19.17;;;7.70;;
3791;SDS011;1911;53.768;11.474;2023-02-24T15:20:32;16.10;;;7.00;;
3791;SDS011;1911;53.768;11.474;2023-02-24T15:22:59;14.57;;;7.33;;
3791;SDS011;1911;53.768;11.474;2023-02-24T15:25:29;16.20;;;7.87;;
3791;SDS011;1911;53.768;11.474;2023-02-24T15:28:26;17.20;;;9.17;;
3791;SDS011;1911;53.768;11.474;2023-02-24T15:33:53;18.43;;;8.03;;
3791;SDS011;1911;53.768;11.474;2023-02-24T15:36:25;13.10;;;7.50;;
3791;SDS011;1911;53.768;11.474;2023-02-24T15:39:02;15.77;;;7.40;;
3791;SDS011;1911;53.768;11.474;2023-02-24T15:41:38;16.03;;;7.80;;
3791;SDS011;1911;53.768;11.474;2023-02-24T15:44:19;14.60;;;7.10;;
3791;SDS011;1911;53.768;11.474;2023-02-24T15:46:47;15.90;;;7.20;;
3791;SDS011;1911;53.768;11.474;2023-02-24T15:49:13;12.20;;;7.60;;
3791;SDS011;1911;53.768;11.474;2023-02-24T15:51:39;18.83;;;8.97;;
3791;SDS011;1911;53.768;11.474;2023-02-24T15:54:10;12.30;;;8.60;;
3791;SDS011;1911;53.768;11.474;2023-02-24T15:56:38;15.17;;;7.80;;
3791;SDS011;1911;53.768;11.474;2023-02-24T15:59:05;17.07;;;8.93;;
3791;SDS011;1911;53.768;11.474;2023-02-24T16:01:31;14.30;;;8.20;;
3791;SDS011;1911;53.768;11.474;2023-02-24T16:03:58;18.97;;;8.70;;
3791;SDS011;1911;53.768;11.474;2023-02-24T16:06:24;16.23;;;8.40;;
3791;SDS011;1911;53.768;11.474;2023-02-24T16:08:51;14.63;;;7.50;;
3791;SDS011;1911;53.768;11.474;2023-02-24T16:11:21;17.00;;;8.50;;
3791;SDS011;1911;53.768;11.474;2023-02-24T16:13:54;10.70;;;7.90;;
3791;SDS011;1911;53.768;11.474;2023-02-24T16:16:22;13.97;;;7.33;;
3791;SDS011;1911;53.768;11.474;2023-02-24T16:18:48;14.77;;;8.20;;
3791;SDS011;1911;53.768;11.474;2023-02-24T16:21:14;10.03;;;7.20;;
3791;SDS011;1911;53.768;11.474;2023-02-24T16:23:40;17.43;;;7.77;;
3791;SDS011;1911;53.768;11.474;2023-02-24T16:26:08;13.43;;;6.50;;
3791;SDS011;1911;53.768;11.474;2023-02-24T16:28:39;13.80;;;8.27;;
3791;SDS011;1911;53.768;11.474;2023-02-24T16:31:04;17.13;;;7.40;;
3791;SDS011;1911;53.768;11.474;2023-02-24T16:33:31;15.93;;;8.60;;
3791;SDS011;1911;53.768;11.474;2023-02-24T16:35:58;17.30;;;8.17;;
3791;SDS011;1911;53.768;11.474;2023-02-24T16:38:24;12.50;;;8.33;;
3791;SDS011;1911;53.768;11.474;2023-02-24T16:40:52;14.07;;;7.10;;
3791;SDS011;1911;53.768;11.474;2023-02-24T16:43:19;13.43;;;7.73;;
3791;SDS011;1911;53.768;11.474;2023-02-24T16:54:05;20.77;;;12.40;;
3791;SDS011;1911;53.768;11.474;2023-02-24T16:57:07;25.53;;;12.90;;
3791;SDS011;1911;53.768;11.474;2023-02-24T17:02:45;17.50;;;10.80;;
3791;SDS011;1911;53.768;11.474;2023-02-24T17:06:11;13.93;;;7.07;;
3791;SDS011;1911;53.768;11.474;2023-02-24T17:08:49;15.67;;;7.87;;
3791;SDS011;1911;53.768;11.474;2023-02-24T17:12:16;19.97;;;8.50;;
3791;SDS011;1911;53.768;11.474;2023-02-24T17:24:32;4.20;;;1.83;;
3791;SDS011;1911;53.768;11.474;2023-02-24T17:26:57;4.13;;;1.30;;
3791;SDS011;1911;53.768;11.474;2023-02-24T17:30:14;6.50;;;1.47;;
3791;SDS011;1911;53.768;11.474;2023-02-24T17:33:12;8.40;;;1.10;;
3791;SDS011;1911;53.768;11.474;2023-02-24T17:36:00;5.43;;;0.90;;
3791;SDS011;1911;53.768;11.474;2023-02-24T17:38:29;7.17;;;1.70;;
3791;SDS011;1911;53.768;11.474;2023-02-24T17:41:04;6.00;;;1.00;;
3791;SDS011;1911;53.768;11.474;2023-02-24T17:46:15;6.07;;;1.20;;
3791;SDS011;1911;53.768;11.474;2023-02-24T17:49:03;6.60;;;1.97;;
3791;SDS011;1911;53.768;11.474;2023-02-24T17:51:29;6.10;;;2.00;;
3791;SDS011;1911;53.768;11.474;2023-02-24T17:53:56;7.20;;;1.80;;
3791;SDS011;1911;53.768;11.474;2023-02-24T17:56:22;9.93;;;2.17;;
3791;SDS011;1911;53.768;11.474;2023-02-24T17:58:49;5.10;;;1.73;;
3791;SDS011;1911;53.768;11.474;2023-02-24T18:01:15;9.27;;;2.60;;
3791;SDS011;1911;53.768;11.474;2023-02-24T18:03:41;17.53;;;5.90;;
3791;SDS011;1911;53.768;11.474;2023-02-24T18:06:08;7.13;;;2.27;;
3791;SDS011;1911;53.768;11.474;2023-02-24T18:08:52;18.07;;;4.27;;
3791;SDS011;1911;53.768;11.474;2023-02-24T18:11:22;10.83;;;5.47;;
3791;SDS011;1911;53.768;11.474;2023-02-24T18:13:54;11.07;;;5.30;;
3791;SDS011;1911;53.768;11.474;2023-02-24T18:16:22;12.47;;;5.80;;
3791;SDS011;1911;53.768;11.474;2023-02-24T18:18:48;11.23;;;3.87;;
3791;SDS011;1911;53.768;11.474;2023-02-24T18:21:14;17.17;;;4.40;;
3791;SDS011;1911;53.768;11.474;2023-02-24T18:23:40;11.90;;;3.27;;
3791;SDS011;1911;53.768;11.474;2023-02-24T18:26:06;10.50;;;5.67;;
3791;SDS011;1911;53.768;11.474;2023-02-24T18:28:33;10.20;;;5.30;;
3791;SDS011;1911;53.768;11.474;2023-02-24T18:31:16;12.80;;;2.93;;
3791;SDS011;1911;53.768;11.474;2023-02-24T18:34:13;12.43;;;2.80;;
3791;SDS011;1911;53.768;11.474;2023-02-24T18:36:42;6.43;;;2.43;;
3791;SDS011;1911;53.768;11.474;2023-02-24T18:39:14;11.83;;;2.43;;